Terminal Aerodrome Forecast
Issued by NWS

Home | Current Version | Previous Version | Text Only | Print | Product List | Glossary On
Versions: 1 2 3 4 5 6 7 8 9 10 11 12 13 14
486
FTUS43 KDLH 180528
TAFHIB
TAF
KHIB 180528Z 1806/1906 20004KT P6SM SKC WS020/23040KT
     FM181500 22009G19KT P6SM SCT200
     FM181700 26011G21KT P6SM FEW250
     FM190100 27007KT P6SM FEW250=

USA.gov is the U.S. government's official web portal to all federal, state and local government web resources and services.